TimeEDT,TemperatureF,Dew PointF,Humidity,Sea Level PressureIn,VisibilityMPH,Wind Direction,Wind SpeedMPH,Gust SpeedMPH,PrecipitationIn,Events,Conditions,WindDirDegrees,DateUTC
12:58 AM,75.0,73.0,94,29.96,10.0,Calm,Calm,-,N/A,,Unknown,0,2013-07-13 04:58:00
1:58 AM,73.9,72.0,93,29.94,9.0,South,4.6,-,N/A,,Unknown,180,2013-07-13 05:58:00
2:58 AM,73.9,72.0,93,29.93,10.0,Calm,Calm,-,N/A,,Unknown,0,2013-07-13 06:58:00
3:58 AM,75.0,73.0,94,29.94,10.0,Calm,Calm,-,N/A,,Unknown,0,2013-07-13 07:58:00
4:58 AM,73.9,72.0,93,29.95,10.0,Calm,Calm,-,N/A,,Unknown,0,2013-07-13 08:58:00
5:58 AM,75.0,73.0,94,29.95,10.0,South,4.6,-,N/A,,Unknown,170,2013-07-13 09:58:00
6:58 AM,75.0,73.0,94,29.95,5.0,Calm,Calm,-,N/A,,Scattered Clouds,0,2013-07-13 10:58:00
7:58 AM,77.0,73.0,88,29.96,5.0,SSW,3.5,-,N/A,,Scattered Clouds,200,2013-07-13 11:58:00
8:58 AM,79.0,73.9,84,29.99,8.0,Calm,Calm,-,N/A,,Partly Cloudy,0,2013-07-13 12:58:00
9:58 AM,81.0,73.9,79,29.99,8.0,South,3.5,-,N/A,,Partly Cloudy,180,2013-07-13 13:58:00
10:58 AM,82.0,75.0,79,29.99,8.0,Variable,3.5,-,N/A,,Scattered Clouds,0,2013-07-13 14:58:00
11:58 AM,84.0,73.9,72,30.00,10.0,ESE,10.4,-,0.00,,Unknown,110,2013-07-13 15:58:00
12:19 PM,84.2,73.4,70,29.99,10.0,ESE,11.5,-,N/A,Thunderstorm,Unknown,120,2013-07-13 16:19:00
12:34 PM,84.2,73.4,70,29.99,10.0,ESE,11.5,-,N/A,,Unknown,110,2013-07-13 16:34:00
12:58 PM,84.0,75.0,74,29.99,7.0,ESE,13.8,-,N/A,,Scattered Clouds,120,2013-07-13 16:58:00
1:58 PM,84.0,75.0,74,29.99,10.0,ESE,17.3,-,0.00,,Unknown,120,2013-07-13 17:58:00
2:58 PM,84.0,75.9,76,29.97,8.0,ESE,15.0,-,N/A,,Scattered Clouds,120,2013-07-13 18:58:00
3:58 PM,84.0,75.0,74,29.97,10.0,ESE,15.0,-,N/A,,Unknown,110,2013-07-13 19:58:00
4:58 PM,81.0,73.9,79,29.99,10.0,SSE,9.2,-,N/A,,Mostly Cloudy,150,2013-07-13 20:58:00
5:44 PM,80.6,73.4,79,30.01,10.0,SSE,11.5,-,N/A,Thunderstorm,Mostly Cloudy,160,2013-07-13 21:44:00
5:49 PM,80.6,73.4,79,30.02,5.0,SSW,18.4,25.3,N/A,Thunderstorm,Haze,200,2013-07-13 21:49:00
5:58 PM,75.9,70.0,82,30.01,5.0,WSW,15.0,29.9,N/A,Thunderstorm,Haze,250,2013-07-13 21:58:00
6:02 PM,75.2,69.8,83,30.02,5.0,WSW,15.0,29.9,0.01,Rain-Thunderstorm,Light Rain,250,2013-07-13 22:02:00
6:08 PM,73.4,71.6,94,30.02,1.2,SSW,10.4,23.0,0.05,Rain,Heavy Rain,210,2013-07-13 22:08:00
6:58 PM,73.0,71.1,93,30.01,1.2,SE,4.6,-,0.22,Rain,Rain,140,2013-07-13 22:58:00
7:02 PM,71.6,69.8,94,30.01,8.0,SSE,4.6,-,0.00,Rain,Light Rain,150,2013-07-13 23:02:00
7:45 PM,73.4,71.6,94,29.99,5.0,ESE,8.1,-,0.03,Rain,Light Rain,110,2013-07-13 23:45:00
7:58 PM,73.0,71.1,93,29.99,5.0,ESE,6.9,-,0.03,Rain,Light Rain,120,2013-07-13 23:58:00
8:58 PM,73.0,71.1,93,29.97,10.0,SE,6.9,-,0.01,,Unknown,140,2013-07-14 00:58:00
9:58 PM,73.0,71.1,93,30.00,10.0,South,5.8,-,N/A,,Unknown,170,2013-07-14 01:58:00
10:58 PM,73.9,72.0,93,30.02,10.0,SSE,4.6,-,N/A,,Unknown,150,2013-07-14 02:58:00
11:58 PM,75.0,73.0,94,30.03,10.0,South,4.6,-,N/A,,Unknown,170,2013-07-14 03:58:00